San Salvador, El Salvador

12:48 PM CST on September 01, 2014 (GMT -0600)
ILALIBER2 | Change Station
CLOSE
Current Station
Personal Weather Station
Location: Antiguo Cuscatlan, LA LIBERTAD
Elevation: 2776 ft
Nearby Weather Stations

Elev 2776 ft 13.67 °N, 89.23 °W | Updated 6 seconds ago

Overcast
Overcast
94.6 °F
Feels Like 115 °F
N
4.5
Wind Variable Wind from NE
Gusts 4.5 mph

Today
High -- | Low -- °F
--% Chance of Precip.
Yesterday
High -- | Low -- °F
Precip. -- in
5:44 AM 6:07 PM
Waxing Crescent, 43% visible
Pressure 29.88 in
Visibility 6.2 miles
Clouds Few 6500 ft
Scattered Clouds 8500 ft
Scattered Clouds 10000 ft
Mostly Cloudy 13000 ft
Mostly Cloudy 15000 ft
Overcast 18000 ft
Heat Index 115 °F
Dew Point 81 °F
Humidity 64%
Rainfall 0.00 in
Snow Depth Not available.
UV 1.0 out of 12
Pollen Not available.
Air Quality Not available.
Flu Activity Not available.
METAR MHSC 011758Z AUTO VRB04KT 9999 FEW065 SCT085 SCT100 BKN130 BKN150 OVC180 30/21 A2999 RMK AO2 SLP116 T02960212 10296 20201 57019 $

More Conditions Fewer Conditions

Pressure 29.88 in
Visibility 6.2 miles
Clouds Few 6500 ft
Scattered Clouds 8500 ft
Scattered Clouds 10000 ft
Mostly Cloudy 13000 ft
Mostly Cloudy 15000 ft
Overcast 18000 ft
Heat Index 115 °F
Dew Point 81 °F
Humidity 64%
Rainfall 0.00 in
Snow Depth Not available.
UV 1.0 out of 12
Pollen Not available.
Air Quality Not available.
Flu Activity Not available.
METAR MHSC 011758Z AUTO VRB04KT 9999 FEW065 SCT085 SCT100 BKN130 BKN150 OVC180 30/21 A2999 RMK AO2 SLP116 T02960212 10296 20201 57019 $

More Conditions Fewer Conditions

10-Day Weather Forecast

Almanac

Astronomy

Sep. 01, 2014 Rise Set
Actual Time 5:44 AM CST 6:07 PM CST
Civil Twilight 5:23 AM CST 6:29 PM CST
Nautical Twilight 4:58 AM CST 6:54 PM CST
Astronomical Twilight 4:32 AM CST 7:19 PM CST
Moon 11:25 AM CST 11:15 PM CST
Length of Visible Light 13h 05m
Length of Day
12h 22m
Tomorrow will be 0m 44s shorter.
Waxing Crescent, 43% of the Moon is Illuminated
Today
Waxing Crescent
Sep 2
First Quarter
Sep 8
Full
Sep 15
Last Quarter
Sep 24
New

Today's Extremes

Country Highs Country Lows

Community

WunderPhotos

Upload Photos

1,749,359 photos uploaded!

Nearby

Snow Depth

Not available.

Earthquake Activity

City Distance Mag. Time & Date
No recent earthquake activity has been reported nearby.
Minimum magnitude displayed is 2.5.

Coastal Water Temperatures

Place Temperature
No Stations Reporting

Nearby Weather Stations